createdAt,value
2018-03-11T00:00:27.932Z,7.60
2018-03-11T00:02:54.177Z,7.60
2018-03-11T00:05:20.471Z,7.70
2018-03-11T00:07:46.781Z,7.60
2018-03-11T00:10:13.103Z,7.50
2018-03-11T00:12:39.439Z,7.50
2018-03-11T00:15:05.771Z,7.50
2018-03-11T00:17:32.101Z,7.80
2018-03-11T00:19:58.434Z,8.20
2018-03-11T00:22:24.826Z,7.80
2018-03-11T00:24:51.188Z,7.60
2018-03-11T00:27:17.595Z,7.50
2018-03-11T00:29:44.627Z,7.30
2018-03-11T00:32:11.666Z,7.30
2018-03-11T00:34:38.909Z,7.30
2018-03-11T00:37:06.135Z,7.30
2018-03-11T00:39:32.456Z,7.30
2018-03-11T00:41:59.489Z,7.30
2018-03-11T00:44:25.813Z,7.30
2018-03-11T00:46:52.101Z,7.50
2018-03-11T00:49:18.391Z,7.40
2018-03-11T00:51:44.718Z,7.40
2018-03-11T00:54:11.016Z,7.40
2018-03-11T00:56:37.318Z,7.50
2018-03-11T00:59:03.721Z,7.30
2018-03-11T01:01:30.033Z,7.40
2018-03-11T01:03:56.314Z,7.30
2018-03-11T01:06:22.609Z,7.30
2018-03-11T01:08:48.931Z,7.30
2018-03-11T01:11:15.233Z,7.20
2018-03-11T01:13:41.549Z,7.20
2018-03-11T01:16:08.571Z,7.30
2018-03-11T01:18:34.877Z,7.20
2018-03-11T01:21:01.155Z,7.30
2018-03-11T01:23:28.194Z,7.40
2018-03-11T01:25:55.217Z,7.30
2018-03-11T01:28:21.530Z,7.30
2018-03-11T01:30:48.019Z,7.40
2018-03-11T01:33:15.057Z,7.40
2018-03-11T01:35:41.389Z,7.40
2018-03-11T01:38:08.422Z,7.40
2018-03-11T01:40:35.463Z,7.20
2018-03-11T01:43:02.515Z,7.30
2018-03-11T01:45:29.942Z,7.30
2018-03-11T01:47:56.247Z,7.30
2018-03-11T01:50:22.544Z,7.40
2018-03-11T01:53:01.853Z,7.20
2018-03-11T01:55:28.151Z,7.10
2018-03-11T01:57:54.441Z,7.30
2018-03-11T02:00:21.029Z,7.40
2018-03-11T02:02:48.251Z,7.20
2018-03-11T02:05:14.590Z,7.20
2018-03-11T02:07:40.946Z,7.30
2018-03-11T02:10:07.402Z,7.40
2018-03-11T02:12:34.459Z,7.50
2018-03-11T02:15:01.496Z,7.50
2018-03-11T02:17:29.001Z,7.40
2018-03-11T02:19:56.045Z,7.40
2018-03-11T02:22:22.357Z,7.30
2018-03-11T02:24:48.658Z,7.50
2018-03-11T02:27:15.787Z,7.30
2018-03-11T02:29:42.853Z,7.40
2018-03-11T02:32:09.170Z,7.30
2018-03-11T02:34:36.241Z,7.40
2018-03-11T02:37:03.334Z,7.50
2018-03-11T02:39:29.658Z,7.50
2018-03-11T02:41:55.964Z,7.50
2018-03-11T02:44:22.997Z,7.50
2018-03-11T02:46:50.058Z,7.50
2018-03-11T02:49:16.399Z,7.50
2018-03-11T02:51:42.717Z,7.60
2018-03-11T02:54:09.760Z,7.60
2018-03-11T02:56:36.823Z,7.50
2018-03-11T02:59:03.141Z,7.50
2018-03-11T03:01:30.204Z,7.60
2018-03-11T03:03:56.521Z,7.50
2018-03-11T03:06:23.579Z,7.50
2018-03-11T03:08:50.005Z,7.50
2018-03-11T03:11:16.316Z,7.50
2018-03-11T03:13:43.369Z,7.50
2018-03-11T03:16:10.503Z,7.50
2018-03-11T03:18:37.574Z,7.60
2018-03-11T03:21:03.889Z,7.60
2018-03-11T03:23:31.037Z,7.70
2018-03-11T03:25:58.080Z,7.70
2018-03-11T03:28:24.380Z,7.60
2018-03-11T03:30:50.790Z,7.70
2018-03-11T03:33:17.809Z,7.70
2018-03-11T03:35:44.837Z,7.60
2018-03-11T03:38:11.912Z,7.70
2018-03-11T03:40:38.216Z,7.60
2018-03-11T03:43:05.282Z,7.50
2018-03-11T03:45:31.593Z,7.50
2018-03-11T03:47:58.657Z,7.60
2018-03-11T03:50:25.753Z,7.60
2018-03-11T03:52:52.049Z,7.50
2018-03-11T03:55:18.358Z,7.60
2018-03-11T03:57:45.427Z,7.70
2018-03-11T04:00:11.737Z,7.70
2018-03-11T04:02:38.789Z,7.80
2018-03-11T04:05:05.832Z,7.70
2018-03-11T04:07:32.883Z,7.70
2018-03-11T04:09:59.930Z,7.70
2018-03-11T04:12:26.986Z,7.70
2018-03-11T04:14:53.309Z,7.60
2018-03-11T04:17:19.617Z,7.70
2018-03-11T04:19:46.722Z,7.60
2018-03-11T04:22:13.809Z,7.70
2018-03-11T04:24:40.120Z,7.60
2018-03-11T04:27:06.422Z,7.70
2018-03-11T04:29:32.762Z,7.70
2018-03-11T04:31:59.121Z,7.80
2018-03-11T04:34:27.109Z,7.80
2018-03-11T04:36:53.435Z,7.80
2018-03-11T04:39:19.747Z,7.80
2018-03-11T04:41:46.076Z,7.80
2018-03-11T04:44:12.380Z,7.90
2018-03-11T04:46:38.649Z,7.90
2018-03-11T04:49:04.961Z,7.80
2018-03-11T04:51:31.276Z,7.80
2018-03-11T04:53:57.600Z,7.90
2018-03-11T04:56:23.881Z,7.80
2018-03-11T04:58:50.939Z,7.80
2018-03-11T05:01:17.994Z,7.80
2018-03-11T05:03:44.301Z,7.80
2018-03-11T05:06:11.705Z,7.90
2018-03-11T05:08:38.241Z,7.80
2018-03-11T05:11:05.288Z,7.80
2018-03-11T05:13:31.593Z,7.80
2018-03-11T05:15:57.928Z,7.70
2018-03-11T05:18:24.217Z,7.70
2018-03-11T05:20:50.516Z,7.70
2018-03-11T05:23:16.782Z,7.70
2018-03-11T05:25:43.152Z,7.80
2018-03-11T05:28:09.441Z,7.90
2018-03-11T05:30:35.736Z,7.90
2018-03-11T05:33:02.069Z,7.90
2018-03-11T05:35:28.474Z,7.90
2018-03-11T05:37:54.775Z,7.90
2018-03-11T05:40:21.852Z,7.90
2018-03-11T05:42:48.218Z,7.80
2018-03-11T05:45:14.523Z,7.70
2018-03-11T05:47:40.829Z,7.90
2018-03-11T05:50:08.087Z,8.00
2018-03-11T05:52:34.381Z,7.90
2018-03-11T05:55:00.684Z,8.00
2018-03-11T05:57:27.003Z,8.00
2018-03-11T05:59:53.309Z,8.00
2018-03-11T06:02:19.602Z,8.00
2018-03-11T06:04:46.046Z,7.90
2018-03-11T06:07:13.087Z,7.90
2018-03-11T06:09:40.115Z,7.80
2018-03-11T06:12:06.427Z,7.80
2018-03-11T06:14:32.727Z,7.80
2018-03-11T06:16:59.045Z,7.80
2018-03-11T06:19:26.130Z,7.80
2018-03-11T06:21:52.446Z,7.80
2018-03-11T06:24:19.482Z,7.80
2018-03-11T06:26:45.793Z,7.80
2018-03-11T06:29:12.816Z,7.90
2018-03-11T06:31:39.120Z,7.90
2018-03-11T06:34:05.422Z,7.90
2018-03-11T06:36:31.734Z,8.00
2018-03-11T06:38:58.837Z,7.90
2018-03-11T06:41:25.838Z,8.00
2018-03-11T06:43:52.164Z,8.00
2018-03-11T06:46:19.196Z,8.20
2018-03-11T06:48:46.312Z,8.30
2018-03-11T06:51:12.818Z,8.30
2018-03-11T06:53:39.123Z,8.30
2018-03-11T06:56:06.763Z,8.10
2018-03-11T06:58:33.085Z,8.10
2018-03-11T07:00:59.383Z,8.10
2018-03-11T07:03:25.704Z,8.20
2018-03-11T07:05:52.144Z,8.30
2018-03-11T07:08:18.433Z,8.40
2018-03-11T07:10:45.462Z,8.60
2018-03-11T07:13:11.760Z,8.60
2018-03-11T07:15:38.074Z,8.60
2018-03-11T07:18:04.378Z,8.40
2018-03-11T07:20:31.578Z,8.50
2018-03-11T07:22:58.185Z,8.50
2018-03-11T07:25:24.460Z,8.60
2018-03-11T07:27:50.765Z,8.70
2018-03-11T07:30:17.188Z,8.50
2018-03-11T07:32:43.512Z,8.50
2018-03-11T07:35:09.768Z,8.50
2018-03-11T07:37:36.085Z,8.50
2018-03-11T07:40:02.409Z,8.40
2018-03-11T07:42:28.707Z,8.60
2018-03-11T07:44:55.029Z,8.50
2018-03-11T07:47:22.068Z,8.60
2018-03-11T07:49:49.117Z,8.60
2018-03-11T07:52:15.446Z,8.50
2018-03-11T07:54:41.794Z,8.60
2018-03-11T07:57:08.099Z,8.70
2018-03-11T07:59:35.160Z,8.90
2018-03-11T08:02:02.209Z,8.90
2018-03-11T08:04:28.538Z,8.80
2018-03-11T08:06:54.825Z,8.80
2018-03-11T08:09:21.143Z,8.80
2018-03-11T08:11:47.471Z,9.00
2018-03-11T08:14:13.774Z,9.00
2018-03-11T08:16:40.082Z,8.90
2018-03-11T08:19:06.417Z,9.10
2018-03-11T08:21:32.717Z,9.10
2018-03-11T08:23:59.018Z,9.20
2018-03-11T08:26:25.331Z,9.30
2018-03-11T08:28:51.807Z,9.40
2018-03-11T08:31:18.122Z,9.50
2018-03-11T08:33:44.443Z,9.70
2018-03-11T08:36:10.757Z,9.70
2018-03-11T08:38:37.115Z,9.80
2018-03-11T08:41:03.493Z,9.90
2018-03-11T08:43:29.796Z,9.90
2018-03-11T08:45:56.111Z,9.90
2018-03-11T08:48:22.431Z,10.10
2018-03-11T08:50:48.761Z,10.20
2018-03-11T08:53:15.060Z,10.40
2018-03-11T08:55:41.375Z,10.50
2018-03-11T08:58:07.655Z,10.80
2018-03-11T09:00:33.982Z,10.80
2018-03-11T09:03:00.309Z,10.90
2018-03-11T09:05:26.627Z,11.00
2018-03-11T09:07:52.932Z,11.20
2018-03-11T09:10:19.228Z,11.20
2018-03-11T09:12:45.533Z,11.10
2018-03-11T09:15:11.881Z,11.20
2018-03-11T09:17:38.192Z,11.20
2018-03-11T09:20:05.263Z,11.40
2018-03-11T09:22:31.562Z,11.30
2018-03-11T09:24:57.856Z,11.50
2018-03-11T09:27:24.157Z,11.50
2018-03-11T09:29:50.456Z,11.50
2018-03-11T09:32:16.742Z,11.70
2018-03-11T09:34:43.098Z,11.70
2018-03-11T09:37:09.441Z,11.80
2018-03-11T09:39:35.768Z,11.90
2018-03-11T09:42:02.633Z,11.80
2018-03-11T09:44:28.963Z,11.90
2018-03-11T09:46:55.580Z,11.90
2018-03-11T09:49:22.682Z,12.20
2018-03-11T09:51:49.840Z,12.30
2018-03-11T09:54:16.868Z,12.20
2018-03-11T09:56:43.211Z,12.20
2018-03-11T09:59:10.306Z,12.40
2018-03-11T10:01:36.637Z,12.30
2018-03-11T10:04:03.751Z,12.80
2018-03-11T10:06:30.127Z,12.80
2018-03-11T10:08:56.416Z,12.80
2018-03-11T10:11:22.790Z,13.00
2018-03-11T10:13:49.121Z,13.20
2018-03-11T10:16:15.472Z,13.30
2018-03-11T10:18:42.892Z,13.30
2018-03-11T10:21:09.238Z,13.30
2018-03-11T10:23:36.312Z,13.60
2018-03-11T10:26:02.636Z,13.60
2018-03-11T10:28:28.972Z,13.70
2018-03-11T10:30:56.033Z,13.50
2018-03-11T10:33:23.081Z,13.50
2018-03-11T10:35:50.169Z,13.50
2018-03-11T10:38:16.538Z,13.50
2018-03-11T10:40:42.838Z,13.50
2018-03-11T10:43:09.165Z,13.90
2018-03-11T10:45:35.495Z,14.00
2018-03-11T10:48:01.887Z,14.10
2018-03-11T10:50:28.208Z,14.10
2018-03-11T10:52:55.247Z,14.30
2018-03-11T10:55:22.271Z,14.40
2018-03-11T10:57:48.593Z,14.40
2018-03-11T11:00:15.179Z,14.50
2018-03-11T11:02:41.570Z,14.40
2018-03-11T11:05:07.876Z,14.40
2018-03-11T11:07:34.197Z,14.50
2018-03-11T11:10:00.473Z,14.50
2018-03-11T11:12:26.776Z,14.60
2018-03-11T11:14:53.089Z,14.70
2018-03-11T11:17:19.547Z,14.70
2018-03-11T11:19:45.875Z,14.60
2018-03-11T11:22:12.181Z,14.70
2018-03-11T11:24:38.488Z,14.60
2018-03-11T11:27:04.839Z,14.60
2018-03-11T11:29:31.456Z,14.40
2018-03-11T11:31:59.190Z,14.90
2018-03-11T11:34:25.754Z,14.90
2018-03-11T11:36:52.106Z,15.00
2018-03-11T11:39:18.488Z,14.70
2018-03-11T11:41:45.660Z,14.50
2018-03-11T11:44:12.760Z,14.50
2018-03-11T11:46:39.115Z,14.40
2018-03-11T11:49:05.424Z,14.60
2018-03-11T11:51:31.905Z,14.90
2018-03-11T11:53:58.280Z,14.80
2018-03-11T11:56:24.599Z,14.90
2018-03-11T11:58:50.945Z,14.80
2018-03-11T12:01:18.770Z,14.90
2018-03-11T12:03:45.107Z,14.90
2018-03-11T12:06:12.440Z,15.00
2018-03-11T12:08:39.499Z,15.30
2018-03-11T12:11:05.821Z,15.20
2018-03-11T12:13:32.868Z,15.50
2018-03-11T12:15:59.960Z,15.40
2018-03-11T12:18:26.294Z,15.30
2018-03-11T12:20:52.609Z,15.30
2018-03-11T12:23:18.938Z,15.40
2018-03-11T12:25:45.267Z,15.30
2018-03-11T12:28:11.620Z,15.20
2018-03-11T12:30:37.929Z,15.30
2018-03-11T12:33:04.258Z,15.30
2018-03-11T12:35:30.603Z,15.50
2018-03-11T12:37:57.042Z,15.50
2018-03-11T12:40:25.083Z,15.60
2018-03-11T12:42:51.408Z,15.60
2018-03-11T12:45:17.743Z,15.60
2018-03-11T12:47:44.059Z,15.50
2018-03-11T12:50:11.127Z,16.40
2018-03-11T12:52:37.501Z,16.40
2018-03-11T12:55:03.876Z,16.60
2018-03-11T12:57:30.195Z,16.80
2018-03-11T12:59:57.271Z,16.50
2018-03-11T13:02:23.623Z,16.50
2018-03-11T13:04:49.964Z,16.30
2018-03-11T13:07:16.430Z,16.00
2018-03-11T13:09:42.819Z,16.10
2018-03-11T13:12:09.152Z,16.00
2018-03-11T13:14:35.485Z,16.00
2018-03-11T13:17:01.818Z,16.10
2018-03-11T13:19:28.162Z,16.50
2018-03-11T13:21:55.300Z,16.70
2018-03-11T13:24:21.625Z,16.70
2018-03-11T13:26:48.058Z,17.00
2018-03-11T13:29:15.888Z,18.00
2018-03-11T13:31:42.195Z,18.00
2018-03-11T13:37:03.475Z,19.00
2018-03-11T13:39:42.340Z,19.00
2018-03-11T13:42:08.923Z,19.30
2018-03-11T13:44:35.263Z,19.00
2018-03-11T13:47:03.524Z,19.20
2018-03-11T13:49:29.890Z,19.80
2018-03-11T13:52:09.393Z,19.50
2018-03-11T13:54:35.695Z,19.50
2018-03-11T13:57:25.758Z,18.70
2018-03-11T13:59:52.861Z,19.00
2018-03-11T14:02:19.204Z,18.90
2018-03-11T14:04:45.527Z,19.50
2018-03-11T14:07:11.887Z,19.60
2018-03-11T14:09:39.722Z,19.00
2018-03-11T14:12:06.033Z,19.00
2018-03-11T14:14:32.596Z,18.50
2018-03-11T14:16:58.950Z,17.90
2018-03-11T14:19:25.314Z,17.80
2018-03-11T14:21:52.401Z,17.20
2018-03-11T14:24:18.744Z,17.20
2018-03-11T14:26:45.086Z,17.00
2018-03-11T14:29:11.451Z,16.90
2018-03-11T14:31:37.806Z,16.70
2018-03-11T14:34:04.135Z,16.50
2018-03-11T14:36:30.457Z,16.50
2018-03-11T14:38:56.782Z,16.50
2018-03-11T14:41:23.844Z,16.60
2018-03-11T14:43:50.196Z,16.50
2018-03-11T14:46:16.545Z,16.40
2018-03-11T14:48:42.862Z,16.50
2018-03-11T14:51:09.196Z,16.30
2018-03-11T14:53:35.535Z,16.30
2018-03-11T14:56:01.883Z,16.20
2018-03-11T14:58:28.207Z,16.20
2018-03-11T15:00:55.472Z,16.10
2018-03-11T15:03:22.072Z,16.10
2018-03-11T15:05:48.372Z,16.10
2018-03-11T15:08:15.510Z,16.20
2018-03-11T15:10:41.852Z,16.20
2018-03-11T15:13:08.186Z,16.20
2018-03-11T15:15:34.661Z,16.20
2018-03-11T15:18:01.004Z,16.90
2018-03-11T15:20:27.315Z,17.40
2018-03-11T15:22:55.235Z,17.80
2018-03-11T15:25:21.570Z,17.70
2018-03-11T15:27:48.669Z,17.40
2018-03-11T15:30:15.022Z,17.30
2018-03-11T15:32:42.115Z,17.20
2018-03-11T15:35:08.494Z,17.10
2018-03-11T15:37:34.894Z,16.90
2018-03-11T15:40:01.219Z,16.80
2018-03-11T15:42:27.558Z,16.80
2018-03-11T15:44:54.975Z,16.50
2018-03-11T15:47:21.357Z,16.10
2018-03-11T15:49:47.703Z,16.00
2018-03-11T15:52:15.707Z,15.80
2018-03-11T15:54:42.066Z,15.80
2018-03-11T15:57:08.406Z,15.70
2018-03-11T15:59:34.826Z,15.70
2018-03-11T16:02:01.155Z,15.70
2018-03-11T16:04:27.511Z,15.40
2018-03-11T16:06:53.843Z,15.30
2018-03-11T16:09:20.179Z,15.30
2018-03-11T16:11:46.507Z,15.30
2018-03-11T16:14:12.863Z,15.20
2018-03-11T16:16:39.996Z,15.10
2018-03-11T16:19:06.330Z,15.00
2018-03-11T16:21:33.486Z,14.80
2018-03-11T16:24:00.589Z,14.70
2018-03-11T16:26:26.961Z,14.60
2018-03-11T16:28:53.276Z,14.60
2018-03-11T16:31:19.664Z,14.60
2018-03-11T16:33:46.013Z,14.50
2018-03-11T16:36:12.355Z,14.40
2018-03-11T16:38:38.744Z,14.40
2018-03-11T16:41:05.826Z,14.30
2018-03-11T16:43:32.146Z,14.20
2018-03-11T16:45:58.514Z,14.30
2018-03-11T16:48:24.859Z,14.40
2018-03-11T16:50:51.202Z,14.20
2018-03-11T16:53:18.304Z,14.20
2018-03-11T16:55:44.651Z,14.10
2018-03-11T16:58:10.979Z,14.20
2018-03-11T17:00:37.321Z,14.20
2018-03-11T17:03:05.178Z,13.90
2018-03-11T17:05:31.518Z,13.90
2018-03-11T17:07:57.849Z,13.90
2018-03-11T17:10:24.396Z,14.20
2018-03-11T17:12:50.714Z,14.00
2018-03-11T17:15:17.039Z,14.00
2018-03-11T17:17:43.371Z,13.90
2018-03-11T17:20:09.745Z,13.80
2018-03-11T17:22:36.055Z,13.70
2018-03-11T17:25:02.357Z,13.60
2018-03-11T17:27:28.846Z,13.70
2018-03-11T17:29:55.165Z,13.60
2018-03-11T17:32:22.307Z,13.60
2018-03-11T17:34:49.395Z,13.60
2018-03-11T17:37:15.747Z,13.50
2018-03-11T17:39:42.560Z,13.50
2018-03-11T17:42:08.917Z,13.50
2018-03-11T17:44:35.249Z,13.50
2018-03-11T17:47:01.559Z,13.50
2018-03-11T17:49:27.853Z,13.40
2018-03-11T17:51:54.152Z,13.40
2018-03-11T17:54:20.476Z,13.30
2018-03-11T17:56:47.544Z,13.50
2018-03-11T17:59:14.695Z,13.50
2018-03-11T18:01:41.847Z,13.50
2018-03-11T18:04:08.953Z,13.40
2018-03-11T18:06:35.304Z,13.40
2018-03-11T18:09:02.415Z,13.30
2018-03-11T18:11:29.887Z,13.20
2018-03-11T18:13:56.240Z,13.20
2018-03-11T18:16:22.713Z,13.30
2018-03-11T18:18:49.082Z,13.20
2018-03-11T18:21:15.432Z,13.20
2018-03-11T18:23:41.782Z,13.20
2018-03-11T18:26:08.880Z,13.20
2018-03-11T18:28:35.521Z,13.10
2018-03-11T18:31:01.844Z,13.20
2018-03-11T18:33:28.181Z,13.20
2018-03-11T18:35:54.536Z,13.20
2018-03-11T18:38:20.900Z,13.20
2018-03-11T18:40:47.226Z,13.20
2018-03-11T18:43:14.303Z,13.10
2018-03-11T18:45:40.871Z,13.10
2018-03-11T18:48:07.190Z,13.10
2018-03-11T18:50:33.527Z,13.00
2018-03-11T18:52:59.892Z,13.00
2018-03-11T18:55:26.228Z,13.10
2018-03-11T18:57:53.324Z,13.30
2018-03-11T19:00:19.714Z,13.20
2018-03-11T19:02:45.996Z,13.10
2018-03-11T19:05:13.190Z,12.90
2018-03-11T19:07:40.260Z,13.00
2018-03-11T19:10:06.639Z,12.90
2018-03-11T19:12:32.976Z,13.00
2018-03-11T19:14:59.335Z,12.90
2018-03-11T19:17:26.426Z,13.00
2018-03-11T19:19:52.806Z,12.90
2018-03-11T19:22:19.911Z,12.90
2018-03-11T19:24:46.264Z,12.80
2018-03-11T19:27:12.614Z,12.90
2018-03-11T19:29:39.003Z,12.80
2018-03-11T19:32:05.352Z,12.70
2018-03-11T19:34:32.490Z,12.70
2018-03-11T19:36:58.863Z,12.60
2018-03-11T19:39:26.266Z,12.70
2018-03-11T19:41:52.724Z,12.60
2018-03-11T19:44:19.200Z,12.80
2018-03-11T19:46:46.277Z,12.90
2018-03-11T19:49:12.606Z,12.80
2018-03-11T19:51:38.971Z,12.80
2018-03-11T19:54:05.320Z,12.90
2018-03-11T19:56:31.782Z,12.80
2018-03-11T19:58:58.082Z,12.70
2018-03-11T20:01:24.415Z,12.60
2018-03-11T20:03:50.711Z,12.60
2018-03-11T20:06:17.037Z,12.60
2018-03-11T20:08:43.376Z,12.60
2018-03-11T20:11:09.723Z,12.60
2018-03-11T20:13:36.038Z,12.50
2018-03-11T20:16:03.298Z,12.70
2018-03-11T20:18:29.648Z,12.60
2018-03-11T20:20:56.734Z,12.60
2018-03-11T20:23:23.091Z,12.50
2018-03-11T20:25:49.430Z,12.50
2018-03-11T20:28:15.764Z,12.50
2018-03-11T20:30:42.100Z,12.60
2018-03-11T20:33:08.540Z,12.50
2018-03-11T20:35:35.655Z,12.50
2018-03-11T20:38:02.954Z,12.40
2018-03-11T20:40:30.394Z,12.40
2018-03-11T20:42:56.726Z,12.40
2018-03-11T20:45:23.044Z,12.40
2018-03-11T20:47:50.124Z,12.50
2018-03-11T20:50:17.193Z,12.30
2018-03-11T20:52:43.679Z,12.30
2018-03-11T20:55:10.802Z,12.20
2018-03-11T20:57:37.172Z,12.20
2018-03-11T21:00:03.724Z,12.20
2018-03-11T21:02:30.942Z,12.10
2018-03-11T21:04:57.279Z,12.10
2018-03-11T21:07:23.717Z,12.10
2018-03-11T21:09:50.091Z,12.20
2018-03-11T21:12:17.193Z,12.20
2018-03-11T21:14:44.228Z,12.20
2018-03-11T21:17:10.772Z,12.20
2018-03-11T21:19:37.852Z,12.10
2018-03-11T21:22:04.920Z,12.10
2018-03-11T21:24:31.275Z,12.10
2018-03-11T21:26:57.630Z,12.10
2018-03-11T21:29:23.967Z,12.10
2018-03-11T21:31:50.299Z,12.00
2018-03-11T21:34:16.670Z,12.00
2018-03-11T21:36:43.194Z,12.10
2018-03-11T21:39:10.278Z,11.90
2018-03-11T21:41:37.339Z,12.10
2018-03-11T21:44:03.643Z,12.00
2018-03-11T21:46:29.961Z,12.00
2018-03-11T21:48:57.014Z,12.10
2018-03-11T21:51:23.323Z,12.00
2018-03-11T21:53:49.660Z,12.00
2018-03-11T21:56:17.056Z,11.90
2018-03-11T21:58:43.408Z,11.90
2018-03-11T22:01:09.716Z,11.90
2018-03-11T22:03:36.083Z,11.90
2018-03-11T22:06:02.491Z,11.90
2018-03-11T22:08:28.858Z,11.80
2018-03-11T22:10:55.931Z,11.80
2018-03-11T22:13:22.327Z,11.80
2018-03-11T22:15:48.762Z,11.80
2018-03-11T22:18:15.103Z,11.90
2018-03-11T22:20:42.193Z,11.70
2018-03-11T22:23:09.362Z,11.80
2018-03-11T22:25:35.677Z,11.70
2018-03-11T22:28:02.313Z,11.70
2018-03-11T22:30:28.660Z,11.70
2018-03-11T22:32:54.989Z,11.70
2018-03-11T22:35:21.338Z,11.70
2018-03-11T22:37:48.432Z,11.70
2018-03-11T22:40:14.769Z,11.60
2018-03-11T22:42:41.109Z,11.70
2018-03-11T22:45:07.483Z,11.60
2018-03-11T22:47:33.800Z,11.60
2018-03-11T22:50:00.878Z,11.70
2018-03-11T22:52:27.224Z,11.60
2018-03-11T22:54:54.321Z,11.50
2018-03-11T22:57:20.667Z,11.50
2018-03-11T22:59:47.777Z,11.40
2018-03-11T23:02:14.135Z,11.40
2018-03-11T23:04:40.491Z,11.50
2018-03-11T23:07:07.594Z,11.60
2018-03-11T23:09:33.975Z,11.50
2018-03-11T23:12:01.091Z,11.40
2018-03-11T23:14:27.427Z,11.40
2018-03-11T23:16:53.764Z,11.50
2018-03-11T23:19:21.226Z,11.50
2018-03-11T23:21:47.543Z,11.40
2018-03-11T23:24:13.928Z,11.30
2018-03-11T23:26:40.278Z,11.30
2018-03-11T23:29:06.596Z,11.50
2018-03-11T23:31:32.959Z,11.50
2018-03-11T23:33:59.293Z,11.60
2018-03-11T23:36:25.660Z,11.50
2018-03-11T23:38:52.725Z,11.40
2018-03-11T23:41:20.047Z,11.40
2018-03-11T23:43:46.374Z,11.30
2018-03-11T23:46:12.726Z,11.40
2018-03-11T23:48:39.832Z,11.40
2018-03-11T23:51:06.215Z,11.40
2018-03-11T23:53:33.271Z,11.40
2018-03-11T23:56:00.358Z,11.30
2018-03-11T23:58:27.405Z,11.30
